sensor_id;sensor_type;location;lat;lon;timestamp;pressure;altitude;pressure_sealevel;temperature;humidity
74722;BME280;63470;49.826;6.740;2023-03-04T00:01:33;101156.12;;;-2.45;56.50
74722;BME280;63470;49.826;6.740;2023-03-04T00:04:07;101162.07;;;-2.45;56.45
74722;BME280;63470;49.826;6.740;2023-03-04T00:06:39;101161.00;;;-2.47;56.45
74722;BME280;63470;49.826;6.740;2023-03-04T00:09:10;101163.59;;;-2.47;56.41
74722;BME280;63470;49.826;6.740;2023-03-04T00:11:39;101157.89;;;-2.48;56.32
74722;BME280;63470;49.826;6.740;2023-03-04T00:14:12;101159.89;;;-2.50;56.28
74722;BME280;63470;49.826;6.740;2023-03-04T00:16:42;101163.23;;;-2.54;56.30
74722;BME280;63470;49.826;6.740;2023-03-04T00:19:09;101159.62;;;-2.62;56.35
74722;BME280;63470;49.826;6.740;2023-03-04T00:21:40;101157.80;;;-2.65;56.40
74722;BME280;63470;49.826;6.740;2023-03-04T00:24:09;101155.17;;;-2.69;56.39
74722;BME280;63470;49.826;6.740;2023-03-04T00:26:44;101153.91;;;-2.77;56.43
74722;BME280;63470;49.826;6.740;2023-03-04T00:29:15;101155.42;;;-2.85;56.51
74722;BME280;63470;49.826;6.740;2023-03-04T00:31:40;101155.95;;;-2.91;56.61
74722;BME280;63470;49.826;6.740;2023-03-04T00:34:13;101157.80;;;-2.96;56.66
74722;BME280;63470;49.826;6.740;2023-03-04T00:36:49;101154.28;;;-3.02;56.72
74722;BME280;63470;49.826;6.740;2023-03-04T00:39:17;101151.71;;;-3.05;56.78
74722;BME280;63470;49.826;6.740;2023-03-04T00:41:43;101152.02;;;-3.08;56.80
74722;BME280;63470;49.826;6.740;2023-03-04T00:44:15;101153.08;;;-3.09;56.83
74722;BME280;63470;49.826;6.740;2023-03-04T00:46:49;101151.81;;;-3.10;56.78
74722;BME280;63470;49.826;6.740;2023-03-04T00:49:17;101149.03;;;-3.11;56.76
74722;BME280;63470;49.826;6.740;2023-03-04T00:51:45;101150.22;;;-3.11;56.75
74722;BME280;63470;49.826;6.740;2023-03-04T00:54:16;101151.80;;;-3.12;56.74
74722;BME280;63470;49.826;6.740;2023-03-04T00:56:46;101146.60;;;-3.13;56.78
74722;BME280;63470;49.826;6.740;2023-03-04T00:59:22;101145.08;;;-3.14;56.79
74722;BME280;63470;49.826;6.740;2023-03-04T01:01:50;101146.02;;;-3.13;56.72
74722;BME280;63470;49.826;6.740;2023-03-04T01:04:22;101146.30;;;-3.15;56.73
74722;BME280;63470;49.826;6.740;2023-03-04T01:06:52;101141.26;;;-3.16;56.72
74722;BME280;63470;49.826;6.740;2023-03-04T01:09:21;101144.84;;;-3.17;56.73
74722;BME280;63470;49.826;6.740;2023-03-04T01:11:53;101146.11;;;-3.20;56.73
74722;BME280;63470;49.826;6.740;2023-03-04T01:14:24;101140.45;;;-3.26;56.75
74722;BME280;63470;49.826;6.740;2023-03-04T01:16:51;101135.22;;;-3.33;56.82
74722;BME280;63470;49.826;6.740;2023-03-04T01:19:20;101138.62;;;-3.34;56.82
74722;BME280;63470;49.826;6.740;2023-03-04T01:21:55;101141.98;;;-3.35;56.82
74722;BME280;63470;49.826;6.740;2023-03-04T01:24:26;101139.64;;;-3.38;56.85
74722;BME280;63470;49.826;6.740;2023-03-04T01:26:56;101139.20;;;-3.42;56.89
74722;BME280;63470;49.826;6.740;2023-03-04T01:29:22;101134.62;;;-3.45;56.97
74722;BME280;63470;49.826;6.740;2023-03-04T01:31:57;101133.86;;;-3.48;56.99
74722;BME280;63470;49.826;6.740;2023-03-04T01:34:27;101133.55;;;-3.51;56.99
74722;BME280;63470;49.826;6.740;2023-03-04T01:36:58;101131.38;;;-3.54;56.93
74722;BME280;63470;49.826;6.740;2023-03-04T01:39:24;101131.44;;;-3.58;56.89
74722;BME280;63470;49.826;6.740;2023-03-04T01:42:02;101126.39;;;-3.60;56.85
74722;BME280;63470;49.826;6.740;2023-03-04T01:44:25;101125.30;;;-3.63;56.86
74722;BME280;63470;49.826;6.740;2023-03-04T01:46:56;101122.30;;;-3.63;56.86
74722;BME280;63470;49.826;6.740;2023-03-04T01:49:29;101120.23;;;-3.64;56.84
74722;BME280;63470;49.826;6.740;2023-03-04T01:52:02;101114.47;;;-3.63;56.81
74722;BME280;63470;49.826;6.740;2023-03-04T01:54:27;101110.81;;;-3.59;56.73
74722;BME280;63470;49.826;6.740;2023-03-04T01:57:17;101105.25;;;-3.57;56.74
74722;BME280;63470;49.826;6.740;2023-03-04T01:59:33;101105.98;;;-3.53;56.76
74722;BME280;63470;49.826;6.740;2023-03-04T02:02:03;101105.51;;;-3.47;56.79
74722;BME280;63470;49.826;6.740;2023-03-04T02:04:32;101103.40;;;-3.38;56.79
74722;BME280;63470;49.826;6.740;2023-03-04T02:07:01;101098.86;;;-3.25;56.75
74722;BME280;63470;49.826;6.740;2023-03-04T02:09:33;101095.11;;;-3.13;56.71
74722;BME280;63470;49.826;6.740;2023-03-04T02:12:02;101088.84;;;-3.00;56.59
74722;BME280;63470;49.826;6.740;2023-03-04T02:14:34;101088.52;;;-2.90;56.52
74722;BME280;63470;49.826;6.740;2023-03-04T02:17:04;101087.55;;;-2.83;56.47
74722;BME280;63470;49.826;6.740;2023-03-04T02:19:49;101078.91;;;-2.76;56.46
74722;BME280;63470;49.826;6.740;2023-03-04T02:22:03;101077.41;;;-2.67;56.41
74722;BME280;63470;49.826;6.740;2023-03-04T02:24:42;101075.73;;;-2.54;56.33
74722;BME280;63470;49.826;6.740;2023-03-04T02:27:03;101073.82;;;-2.40;56.16
74722;BME280;63470;49.826;6.740;2023-03-04T02:29:38;101071.22;;;-2.25;56.02
74722;BME280;63470;49.826;6.740;2023-03-04T02:32:04;101072.19;;;-2.13;55.94
74722;BME280;63470;49.826;6.740;2023-03-04T02:34:44;101065.76;;;-2.04;55.85
74722;BME280;63470;49.826;6.740;2023-03-04T02:37:09;101067.31;;;-1.96;55.86
74722;BME280;63470;49.826;6.740;2023-03-04T02:39:40;101069.44;;;-1.86;55.83
74722;BME280;63470;49.826;6.740;2023-03-04T02:42:11;101063.86;;;-1.76;55.78
74722;BME280;63470;49.826;6.740;2023-03-04T02:44:39;101068.86;;;-1.66;55.77
74722;BME280;63470;49.826;6.740;2023-03-04T02:47:12;101066.55;;;-1.56;55.74
74722;BME280;63470;49.826;6.740;2023-03-04T02:49:39;101064.13;;;-1.48;55.74
74722;BME280;63470;49.826;6.740;2023-03-04T02:52:19;101063.92;;;-1.40;55.74
74722;BME280;63470;49.826;6.740;2023-03-04T02:54:38;101064.44;;;-1.32;55.74
74722;BME280;63470;49.826;6.740;2023-03-04T02:57:13;101063.22;;;-1.23;55.69
74722;BME280;63470;49.826;6.740;2023-03-04T02:59:41;101061.31;;;-1.15;55.66
74722;BME280;63470;49.826;6.740;2023-03-04T03:02:09;101065.23;;;-1.07;55.59
74722;BME280;63470;49.826;6.740;2023-03-04T03:04:45;101060.88;;;-0.96;55.49
74722;BME280;63470;49.826;6.740;2023-03-04T03:07:15;101059.24;;;-0.87;55.40
74722;BME280;63470;49.826;6.740;2023-03-04T03:09:43;101058.33;;;-0.79;55.30
74722;BME280;63470;49.826;6.740;2023-03-04T03:12:17;101056.78;;;-0.74;55.27
74722;BME280;63470;49.826;6.740;2023-03-04T03:14:47;101057.03;;;-0.68;55.31
74722;BME280;63470;49.826;6.740;2023-03-04T03:17:17;101052.77;;;-0.64;55.32
74722;BME280;63470;49.826;6.740;2023-03-04T03:19:48;101050.61;;;-0.61;55.40
74722;BME280;63470;49.826;6.740;2023-03-04T03:22:16;101050.81;;;-0.57;55.41
74722;BME280;63470;49.826;6.740;2023-03-04T03:24:44;101050.45;;;-0.51;55.41
74722;BME280;63470;49.826;6.740;2023-03-04T03:27:17;101044.03;;;-0.46;55.36
74722;BME280;63470;49.826;6.740;2023-03-04T03:29:45;101046.18;;;-0.43;55.30
74722;BME280;63470;49.826;6.740;2023-03-04T03:32:22;101039.20;;;-0.39;55.26
74722;BME280;63470;49.826;6.740;2023-03-04T03:34:51;101042.23;;;-0.36;55.22
74722;BME280;63470;49.826;6.740;2023-03-04T03:37:17;101039.30;;;-0.33;55.20
74722;BME280;63470;49.826;6.740;2023-03-04T03:39:50;101041.23;;;-0.31;55.20
74722;BME280;63470;49.826;6.740;2023-03-04T03:42:23;101040.59;;;-0.29;55.14
74722;BME280;63470;49.826;6.740;2023-03-04T03:44:50;101044.46;;;-0.26;55.11
74722;BME280;63470;49.826;6.740;2023-03-04T03:47:24;101042.04;;;-0.23;55.08
74722;BME280;63470;49.826;6.740;2023-03-04T03:49:55;101040.77;;;-0.23;55.10
74722;BME280;63470;49.826;6.740;2023-03-04T03:52:20;101047.41;;;-0.21;55.07
74722;BME280;63470;49.826;6.740;2023-03-04T03:54:53;101044.17;;;-0.17;55.06
74722;BME280;63470;49.826;6.740;2023-03-04T03:57:21;101042.22;;;-0.17;55.12
74722;BME280;63470;49.826;6.740;2023-03-04T03:59:57;101043.27;;;-0.15;55.15
74722;BME280;63470;49.826;6.740;2023-03-04T04:02:25;101043.05;;;-0.12;55.15
74722;BME280;63470;49.826;6.740;2023-03-04T04:04:53;101040.59;;;-0.09;55.21
74722;BME280;63470;49.826;6.740;2023-03-04T04:07:28;101039.78;;;-0.05;55.24
74722;BME280;63470;49.826;6.740;2023-03-04T04:09:56;101042.86;;;-0.01;55.21
74722;BME280;63470;49.826;6.740;2023-03-04T04:12:25;101039.67;;;0.03;55.19
74722;BME280;63470;49.826;6.740;2023-03-04T04:14:55;101037.52;;;0.07;55.14
74722;BME280;63470;49.826;6.740;2023-03-04T04:17:29;101036.36;;;0.11;55.09
74722;BME280;63470;49.826;6.740;2023-03-04T04:19:56;101032.53;;;0.14;55.09
74722;BME280;63470;49.826;6.740;2023-03-04T04:22:30;101030.91;;;0.17;55.08
74722;BME280;63470;49.826;6.740;2023-03-04T04:24:57;101030.62;;;0.20;55.05
74722;BME280;63470;49.826;6.740;2023-03-04T04:27:28;101031.77;;;0.22;55.00
74722;BME280;63470;49.826;6.740;2023-03-04T04:30:04;101028.59;;;0.24;54.95
74722;BME280;63470;49.826;6.740;2023-03-04T04:32:33;101023.73;;;0.24;55.01
74722;BME280;63470;49.826;6.740;2023-03-04T04:35:02;101027.43;;;0.27;55.03
74722;BME280;63470;49.826;6.740;2023-03-04T04:37:29;101023.75;;;0.29;54.96
74722;BME280;63470;49.826;6.740;2023-03-04T04:40:05;101025.86;;;0.29;55.01
74722;BME280;63470;49.826;6.740;2023-03-04T04:42:34;101029.11;;;0.31;55.02
74722;BME280;63470;49.826;6.740;2023-03-04T04:45:07;101028.54;;;0.33;54.98
74722;BME280;63470;49.826;6.740;2023-03-04T04:47:36;101032.33;;;0.34;55.01
74722;BME280;63470;49.826;6.740;2023-03-04T04:50:02;101033.10;;;0.38;55.00
74722;BME280;63470;49.826;6.740;2023-03-04T04:52:37;101034.09;;;0.39;55.04
74722;BME280;63470;49.826;6.740;2023-03-04T04:55:03;101032.80;;;0.39;55.05
74722;BME280;63470;49.826;6.740;2023-03-04T04:57:35;101038.02;;;0.39;55.09
74722;BME280;63470;49.826;6.740;2023-03-04T05:00:06;101035.29;;;0.40;55.07
74722;BME280;63470;49.826;6.740;2023-03-04T05:02:37;101029.92;;;0.37;55.11
74722;BME280;63470;49.826;6.740;2023-03-04T05:05:07;101033.67;;;0.36;55.15
74722;BME280;63470;49.826;6.740;2023-03-04T05:07:38;101036.23;;;0.37;55.20
74722;BME280;63470;49.826;6.740;2023-03-04T05:10:04;101034.91;;;0.38;55.20
74722;BME280;63470;49.826;6.740;2023-03-04T05:12:39;101029.53;;;0.40;55.22
74722;BME280;63470;49.826;6.740;2023-03-04T05:15:10;101034.33;;;0.45;55.23
74722;BME280;63470;49.826;6.740;2023-03-04T05:17:35;101035.29;;;0.49;55.18
74722;BME280;63470;49.826;6.740;2023-03-04T05:20:07;101029.78;;;0.51;55.17
74722;BME280;63470;49.826;6.740;2023-03-04T05:22:38;101028.62;;;0.52;55.17
74722;BME280;63470;49.826;6.740;2023-03-04T05:25:12;101036.44;;;0.53;55.17
74722;BME280;63470;49.826;6.740;2023-03-04T05:27:40;101037.45;;;0.53;55.14
74722;BME280;63470;49.826;6.740;2023-03-04T05:30:08;101043.00;;;0.51;55.17
74722;BME280;63470;49.826;6.740;2023-03-04T05:32:41;101037.55;;;0.53;55.20
74722;BME280;63470;49.826;6.740;2023-03-04T05:35:13;101041.12;;;0.53;55.24
74722;BME280;63470;49.826;6.740;2023-03-04T05:37:42;101048.34;;;0.54;55.29
74722;BME280;63470;49.826;6.740;2023-03-04T05:40:15;101040.58;;;0.55;55.33
74722;BME280;63470;49.826;6.740;2023-03-04T05:42:40;101043.67;;;0.58;55.38
74722;BME280;63470;49.826;6.740;2023-03-04T05:45:16;101042.45;;;0.62;55.37
74722;BME280;63470;49.826;6.740;2023-03-04T05:47:41;101037.84;;;0.64;55.40
74722;BME280;63470;49.826;6.740;2023-03-04T05:50:14;101040.77;;;0.64;55.41
74722;BME280;63470;49.826;6.740;2023-03-04T05:52:48;101042.16;;;0.67;55.42
74722;BME280;63470;49.826;6.740;2023-03-04T05:55:16;101041.41;;;0.68;55.35
74722;BME280;63470;49.826;6.740;2023-03-04T05:57:45;101038.98;;;0.69;55.36
74722;BME280;63470;49.826;6.740;2023-03-04T06:00:19;101044.23;;;0.70;55.37
74722;BME280;63470;49.826;6.740;2023-03-04T06:02:46;101042.20;;;0.70;55.39
74722;BME280;63470;49.826;6.740;2023-03-04T06:05:18;101046.55;;;0.70;55.41
74722;BME280;63470;49.826;6.740;2023-03-04T06:07:47;101050.25;;;0.67;55.42
74722;BME280;63470;49.826;6.740;2023-03-04T06:10:18;101050.70;;;0.65;55.51
74722;BME280;63470;49.826;6.740;2023-03-04T06:12:53;101057.34;;;0.67;55.56
74722;BME280;63470;49.826;6.740;2023-03-04T06:15:24;101057.30;;;0.70;55.56
74722;BME280;63470;49.826;6.740;2023-03-04T06:17:49;101053.36;;;0.74;55.56
74722;BME280;63470;49.826;6.740;2023-03-04T06:20:22;101058.88;;;0.78;55.57
74722;BME280;63470;49.826;6.740;2023-03-04T06:22:52;101060.11;;;0.82;55.50
74722;BME280;63470;49.826;6.740;2023-03-04T06:25:24;101058.70;;;0.86;55.42
74722;BME280;63470;49.826;6.740;2023-03-04T06:27:53;101060.84;;;0.87;55.45
74722;BME280;63470;49.826;6.740;2023-03-04T06:30:22;101059.67;;;0.89;55.47
74722;BME280;63470;49.826;6.740;2023-03-04T06:32:53;101063.61;;;0.92;55.45
74722;BME280;63470;49.826;6.740;2023-03-04T06:35:23;101066.56;;;0.92;55.41
74722;BME280;63470;49.826;6.740;2023-03-04T06:37:56;101065.68;;;0.93;55.41
74722;BME280;63470;49.826;6.740;2023-03-04T06:40:24;101068.66;;;0.96;55.45
74722;BME280;63470;49.826;6.740;2023-03-04T06:42:57;101065.23;;;0.99;55.45
74722;BME280;63470;49.826;6.740;2023-03-04T06:45:27;101068.82;;;1.01;55.47
74722;BME280;63470;49.826;6.740;2023-03-04T06:47:57;101069.84;;;1.05;55.37
74722;BME280;63470;49.826;6.740;2023-03-04T06:50:30;101070.69;;;1.08;55.30
74722;BME280;63470;49.826;6.740;2023-03-04T06:52:56;101073.97;;;1.13;55.28
74722;BME280;63470;49.826;6.740;2023-03-04T06:55:30;101078.59;;;1.18;55.24
74722;BME280;63470;49.826;6.740;2023-03-04T06:57:56;101077.48;;;1.23;55.25
74722;BME280;63470;49.826;6.740;2023-03-04T07:00:26;101082.50;;;1.29;55.24
74722;BME280;63470;49.826;6.740;2023-03-04T07:02:57;101078.42;;;1.33;55.27
74722;BME280;63470;49.826;6.740;2023-03-04T07:05:32;101086.11;;;1.37;55.33
74722;BME280;63470;49.826;6.740;2023-03-04T07:07:57;101088.84;;;1.44;55.29
74722;BME280;63470;49.826;6.740;2023-03-04T07:10:33;101092.55;;;1.49;55.24
74722;BME280;63470;49.826;6.740;2023-03-04T07:12:58;101087.69;;;1.52;55.23
74722;BME280;63470;49.826;6.740;2023-03-04T07:15:29;101086.90;;;1.57;55.21
74722;BME280;63470;49.826;6.740;2023-03-04T07:18:03;101093.81;;;1.58;55.15
74722;BME280;63470;49.826;6.740;2023-03-04T07:20:30;101092.26;;;1.60;55.19
74722;BME280;63470;49.826;6.740;2023-03-04T07:23:01;101090.69;;;1.63;55.18
74722;BME280;63470;49.826;6.740;2023-03-04T07:25:31;101093.79;;;1.64;55.10
74722;BME280;63470;49.826;6.740;2023-03-04T07:28:02;101090.62;;;1.67;55.10
74722;BME280;63470;49.826;6.740;2023-03-04T07:30:35;101095.03;;;1.72;55.12
74722;BME280;63470;49.826;6.740;2023-03-04T07:33:05;101088.48;;;1.76;55.13
74722;BME280;63470;49.826;6.740;2023-03-04T07:35:33;101089.78;;;1.80;55.07
74722;BME280;63470;49.826;6.740;2023-03-04T07:38:06;101088.81;;;1.88;55.06
74722;BME280;63470;49.826;6.740;2023-03-04T07:40:34;101093.70;;;1.95;55.07
74722;BME280;63470;49.826;6.740;2023-03-04T07:43:10;101093.77;;;2.02;55.08
74722;BME280;63470;49.826;6.740;2023-03-04T07:45:38;101092.38;;;2.05;55.07
74722;BME280;63470;49.826;6.740;2023-03-04T07:48:06;101096.84;;;2.07;55.12
74722;BME280;63470;49.826;6.740;2023-03-04T07:50:37;101091.95;;;2.11;55.16
74722;BME280;63470;49.826;6.740;2023-03-04T07:53:08;101088.68;;;2.16;55.17
74722;BME280;63470;49.826;6.740;2023-03-04T07:55:38;101091.38;;;2.22;55.16
74722;BME280;63470;49.826;6.740;2023-03-04T07:58:13;101090.99;;;2.33;55.13
74722;BME280;63470;49.826;6.740;2023-03-04T08:00:41;101089.87;;;2.41;55.11
74722;BME280;63470;49.826;6.740;2023-03-04T08:03:14;101097.08;;;2.48;55.11
74722;BME280;63470;49.826;6.740;2023-03-04T08:05:42;101097.12;;;2.60;55.03
74722;BME280;63470;49.826;6.740;2023-03-04T08:08:11;101097.05;;;2.63;54.98
74722;BME280;63470;49.826;6.740;2023-03-04T08:10:42;101100.25;;;2.67;54.95
74722;BME280;63470;49.826;6.740;2023-03-04T08:13:12;101094.78;;;2.72;54.92
74722;BME280;63470;49.826;6.740;2023-03-04T08:15:42;101089.95;;;2.76;54.95
74722;BME280;63470;49.826;6.740;2023-03-04T08:18:13;101091.72;;;2.87;54.94
74722;BME280;63470;49.826;6.740;2023-03-04T08:20:46;101092.12;;;2.98;54.88
74722;BME280;63470;49.826;6.740;2023-03-04T08:23:15;101089.08;;;3.03;54.86
74722;BME280;63470;49.826;6.740;2023-03-04T08:25:46;101088.89;;;3.08;54.81
74722;BME280;63470;49.826;6.740;2023-03-04T08:28:20;101088.91;;;3.17;54.84
74722;BME280;63470;49.826;6.740;2023-03-04T08:30:51;101089.27;;;3.24;54.77
74722;BME280;63470;49.826;6.740;2023-03-04T08:33:17;101093.78;;;3.31;54.81
74722;BME280;63470;49.826;6.740;2023-03-04T08:35:50;101090.23;;;3.41;54.85
74722;BME280;63470;49.826;6.740;2023-03-04T08:38:18;101091.70;;;3.53;54.81
74722;BME280;63470;49.826;6.740;2023-03-04T08:40:55;101089.51;;;3.58;54.75
74722;BME280;63470;49.826;6.740;2023-03-04T08:43:22;101081.20;;;3.67;54.75
74722;BME280;63470;49.826;6.740;2023-03-04T08:45:50;101090.04;;;3.75;54.68
74722;BME280;63470;49.826;6.740;2023-03-04T08:48:23;101088.00;;;3.78;54.63
74722;BME280;63470;49.826;6.740;2023-03-04T08:50:50;101090.84;;;3.81;54.76
74722;BME280;63470;49.826;6.740;2023-03-04T08:53:26;101090.16;;;3.89;54.76
74722;BME280;63470;49.826;6.740;2023-03-04T08:55:52;101094.06;;;3.95;54.76
74722;BME280;63470;49.826;6.740;2023-03-04T08:58:23;101090.01;;;3.99;54.71
74722;BME280;63470;49.826;6.740;2023-03-04T09:00:53;101095.53;;;4.02;54.76
74722;BME280;63470;49.826;6.740;2023-03-04T09:03:24;101100.41;;;4.11;54.74
74722;BME280;63470;49.826;6.740;2023-03-04T09:05:55;101099.11;;;4.21;54.68
74722;BME280;63470;49.826;6.740;2023-03-04T09:08:25;101101.81;;;4.32;54.63
74722;BME280;63470;49.826;6.740;2023-03-04T09:10:56;101097.80;;;4.42;54.57
74722;BME280;63470;49.826;6.740;2023-03-04T09:13:32;101103.33;;;4.52;54.53
74722;BME280;63470;49.826;6.740;2023-03-04T09:15:58;101103.98;;;4.59;54.50
74722;BME280;63470;49.826;6.740;2023-03-04T09:18:28;101098.21;;;4.65;54.45
74722;BME280;63470;49.826;6.740;2023-03-04T09:21:03;101100.52;;;4.72;54.47
74722;BME280;63470;49.826;6.740;2023-03-04T09:23:29;101100.61;;;4.85;54.51
74722;BME280;63470;49.826;6.740;2023-03-04T09:26:00;101101.45;;;4.97;54.45
74722;BME280;63470;49.826;6.740;2023-03-04T09:28:33;101096.55;;;5.06;54.43
74722;BME280;63470;49.826;6.740;2023-03-04T09:31:09;101101.69;;;5.17;54.38
74722;BME280;63470;49.826;6.740;2023-03-04T09:33:32;101103.45;;;5.23;54.33
74722;BME280;63470;49.826;6.740;2023-03-04T09:36:02;101104.92;;;5.28;54.47
74722;BME280;63470;49.826;6.740;2023-03-04T09:38:33;101103.61;;;5.36;54.46
74722;BME280;63470;49.826;6.740;2023-03-04T09:41:07;101105.75;;;5.40;54.41
74722;BME280;63470;49.826;6.740;2023-03-04T09:43:36;101102.81;;;5.49;54.34
74722;BME280;63470;49.826;6.740;2023-03-04T09:46:08;101103.02;;;5.52;54.47
74722;BME280;63470;49.826;6.740;2023-03-04T09:48:39;101104.22;;;5.59;54.53
74722;BME280;63470;49.826;6.740;2023-03-04T09:56:06;101096.38;;;5.55;54.69
74722;BME280;63470;49.826;6.740;2023-03-04T09:58:59;101096.30;;;5.51;54.72
74722;BME280;63470;49.826;6.740;2023-03-04T10:01:23;101097.70;;;5.48;54.83
74722;BME280;63470;49.826;6.740;2023-03-04T10:03:47;101098.70;;;5.49;54.86
74722;BME280;63470;49.826;6.740;2023-03-04T10:06:15;101096.98;;;5.53;54.83
74722;BME280;63470;49.826;6.740;2023-03-04T10:11:14;101099.88;;;5.59;55.03
74722;BME280;63470;49.826;6.740;2023-03-04T10:13:51;101091.70;;;5.73;54.96
74722;BME280;63470;49.826;6.740;2023-03-04T10:16:13;101088.72;;;5.84;54.87
74722;BME280;63470;49.826;6.740;2023-03-04T10:18:45;101086.67;;;5.94;54.80
74722;BME280;63470;49.826;6.740;2023-03-04T10:23:42;101084.09;;;6.06;54.61
74722;BME280;63470;49.826;6.740;2023-03-04T10:26:14;101079.32;;;6.16;54.55
74722;BME280;63470;49.826;6.740;2023-03-04T10:28:42;101080.64;;;6.26;54.48
74722;BME280;63470;49.826;6.740;2023-03-04T10:31:20;101077.62;;;6.32;54.48
74722;BME280;63470;49.826;6.740;2023-03-04T10:33:43;101078.21;;;6.50;54.49
74722;BME280;63470;49.826;6.740;2023-03-04T10:36:35;101078.16;;;6.59;54.32
74722;BME280;63470;49.826;6.740;2023-03-04T10:38:44;101078.55;;;6.57;54.26
74722;BME280;63470;49.826;6.740;2023-03-04T10:41:19;101073.59;;;6.61;54.33
74722;BME280;63470;49.826;6.740;2023-03-04T10:46:19;101072.78;;;6.81;54.42
74722;BME280;63470;49.826;6.740;2023-03-04T10:48:47;101068.39;;;6.96;54.33
74722;BME280;63470;49.826;6.740;2023-03-04T10:51:20;101068.75;;;7.06;54.33
74722;BME280;63470;49.826;6.740;2023-03-04T10:53:50;101069.52;;;7.15;54.26
74722;BME280;63470;49.826;6.740;2023-03-04T10:56:35;101066.72;;;7.21;54.31
74722;BME280;63470;49.826;6.740;2023-03-04T10:58:54;101064.11;;;7.31;54.30
74722;BME280;63470;49.826;6.740;2023-03-04T11:01:25;101064.30;;;7.39;54.25
74722;BME280;63470;49.826;6.740;2023-03-04T11:03:50;101061.71;;;7.44;54.34
74722;BME280;63470;49.826;6.740;2023-03-04T11:06:22;101057.36;;;7.51;54.31
74722;BME280;63470;49.826;6.740;2023-03-04T11:08:56;101055.37;;;7.58;54.24
74722;BME280;63470;49.826;6.740;2023-03-04T11:11:29;101052.08;;;7.65;54.17
74722;BME280;63470;49.826;6.740;2023-03-04T11:13:56;101050.44;;;7.75;54.14
74722;BME280;63470;49.826;6.740;2023-03-04T11:16:27;101053.34;;;7.80;54.25
74722;BME280;63470;49.826;6.740;2023-03-04T11:18:56;101050.36;;;7.87;54.16
74722;BME280;63470;49.826;6.740;2023-03-04T11:21:27;101046.68;;;7.87;54.07
74722;BME280;63470;49.826;6.740;2023-03-04T11:23:59;101044.30;;;7.90;54.06
74722;BME280;63470;49.826;6.740;2023-03-04T11:26:35;101041.06;;;7.95;54.05
74722;BME280;63470;49.826;6.740;2023-03-04T11:28:58;101043.33;;;8.04;54.02
74722;BME280;63470;49.826;6.740;2023-03-04T11:31:37;101041.88;;;8.17;53.94
74722;BME280;63470;49.826;6.740;2023-03-04T11:34:01;101035.41;;;8.20;54.03
74722;BME280;63470;49.826;6.740;2023-03-04T11:36:55;101038.89;;;8.24;54.14
74722;BME280;63470;49.826;6.740;2023-03-04T11:38:57;101035.98;;;8.29;54.09
74722;BME280;63470;49.826;6.740;2023-03-04T11:41:32;101029.38;;;8.39;54.09
74722;BME280;63470;49.826;6.740;2023-03-04T11:43:59;101032.53;;;8.41;54.04
74722;BME280;63470;49.826;6.740;2023-03-04T11:47:00;101029.08;;;8.40;54.14
74722;BME280;63470;49.826;6.740;2023-03-04T11:49:16;101029.36;;;8.46;54.25
74722;BME280;63470;49.826;6.740;2023-03-04T11:52:00;101027.58;;;8.52;54.29
74722;BME280;63470;49.826;6.740;2023-03-04T11:56:49;101019.95;;;8.58;54.23
74722;BME280;63470;49.826;6.740;2023-03-04T12:01:54;101009.28;;;8.62;54.29
74722;BME280;63470;49.826;6.740;2023-03-04T12:04:08;101000.55;;;8.65;54.24
74722;BME280;63470;49.826;6.740;2023-03-04T12:06:50;101003.12;;;8.66;54.30
74722;BME280;63470;49.826;6.740;2023-03-04T12:14:10;100992.94;;;8.73;54.45
74722;BME280;63470;49.826;6.740;2023-03-04T12:24:11;100982.95;;;8.69;54.38
74722;BME280;63470;49.826;6.740;2023-03-04T12:29:07;100978.55;;;8.70;54.36
74722;BME280;63470;49.826;6.740;2023-03-04T12:31:35;100973.92;;;8.73;54.37
74722;BME280;63470;49.826;6.740;2023-03-04T12:34:28;100969.68;;;8.76;54.50
74722;BME280;63470;49.826;6.740;2023-03-04T12:36:51;100971.67;;;8.84;54.42
74722;BME280;63470;49.826;6.740;2023-03-04T12:41:52;100966.08;;;8.86;54.49
74722;BME280;63470;49.826;6.740;2023-03-04T12:44:15;100964.91;;;8.81;54.46
74722;BME280;63470;49.826;6.740;2023-03-04T12:54:33;100941.42;;;8.96;54.41
74722;BME280;63470;49.826;6.740;2023-03-04T12:56:41;100941.12;;;9.05;54.36
74722;BME280;63470;49.826;6.740;2023-03-04T12:59:13;100932.06;;;9.14;54.41
74722;BME280;63470;49.826;6.740;2023-03-04T13:01:41;100931.49;;;9.26;54.41
74722;BME280;63470;49.826;6.740;2023-03-04T13:04:21;100931.41;;;9.44;54.32
74722;BME280;63470;49.826;6.740;2023-03-04T13:06:46;100925.88;;;9.49;54.22
74722;BME280;63470;49.826;6.740;2023-03-04T13:09:27;100926.15;;;9.47;54.30
74722;BME280;63470;49.826;6.740;2023-03-04T13:11:52;100924.09;;;9.43;54.39
74722;BME280;63470;49.826;6.740;2023-03-04T13:14:23;100922.44;;;9.34;54.57
74722;BME280;63470;49.826;6.740;2023-03-04T13:16:43;100917.56;;;9.23;54.69
74722;BME280;63470;49.826;6.740;2023-03-04T13:19:42;100910.45;;;9.01;54.89
74722;BME280;63470;49.826;6.740;2023-03-04T13:21:45;100918.33;;;8.83;54.97
74722;BME280;63470;49.826;6.740;2023-03-04T13:24:43;100922.91;;;8.71;55.06
74722;BME280;63470;49.826;6.740;2023-03-04T13:26:43;100925.12;;;8.67;55.14
74722;BME280;63470;49.826;6.740;2023-03-04T13:31:57;100911.23;;;8.72;55.03
74722;BME280;63470;49.826;6.740;2023-03-04T13:36:54;100909.02;;;8.64;55.01
74722;BME280;63470;49.826;6.740;2023-03-04T13:39:22;100906.28;;;8.71;55.05
74722;BME280;63470;49.826;6.740;2023-03-04T13:41:51;100904.60;;;8.85;54.94
74722;BME280;63470;49.826;6.740;2023-03-04T13:44:33;100902.22;;;8.97;54.79
74722;BME280;63470;49.826;6.740;2023-03-04T13:46:47;100900.34;;;9.03;54.68
74722;BME280;63470;49.826;6.740;2023-03-04T13:49:21;100899.44;;;9.09;54.72
74722;BME280;63470;49.826;6.740;2023-03-04T13:51:49;100897.24;;;9.13;54.68
74722;BME280;63470;49.826;6.740;2023-03-04T13:54:25;100894.03;;;9.15;54.76
74722;BME280;63470;49.826;6.740;2023-03-04T13:57:14;100888.84;;;9.23;54.75
74722;BME280;63470;49.826;6.740;2023-03-04T13:59:26;100887.67;;;9.29;54.73
74722;BME280;63470;49.826;6.740;2023-03-04T14:01:56;100887.20;;;9.31;54.68